Time;durP1;ratioP1;P1;durP2;ratioP2;P2;SDS_P1;SDS_P2;PMS_P1;PMS_P2;Temp;Humidity;BMP_temperature;BMP_pressure;BME280_temperature;BME280_humidity;BME280_pressure;Samples;Min_cycle;Max_cycle;Signal;HPM_P1;HPM_P2
2022/06/28 00:00:34;;;;;;;0.40;0.20;;;17.10;99.90;;;;;;5049904;28;20420;-66
2022/06/28 00:02:59;;;;;;;0.40;0.40;;;17.10;99.90;;;;;;5050315;28;20389;-66
2022/06/28 00:05:25;;;;;;;0.40;0.30;;;17.10;99.90;;;;;;5049939;28;20939;-66
2022/06/28 00:07:51;;;;;;;0.90;0.90;;;17.00;99.90;;;;;;5049417;28;20442;-66
2022/06/28 00:10:16;;;;;;;0.40;0.30;;;17.00;99.90;;;;;;5050009;28;20435;-66
2022/06/28 00:12:43;;;;;;;0.40;0.20;;;16.90;99.90;;;;;;5049247;28;20384;-66
2022/06/28 00:17:57;;;;;;;0.40;0.20;;;16.80;99.90;;;;;;5027865;28;20535;-66
2022/06/28 00:20:23;;;;;;;0.40;0.20;;;16.80;99.90;;;;;;5050076;28;20401;-66
2022/06/28 00:22:49;;;;;;;0.40;0.20;;;16.80;99.90;;;;;;5049247;28;20428;-66
2022/06/28 00:25:15;;;;;;;0.40;0.20;;;16.70;99.90;;;;;;5050475;28;20440;-66
2022/06/28 00:27:41;;;;;;;0.40;0.20;;;16.60;99.90;;;;;;5050813;28;20447;-66
2022/06/28 00:30:07;;;;;;;0.40;0.20;;;16.60;99.90;;;;;;5048785;28;20738;-66
2022/06/28 00:32:33;;;;;;;0.40;0.25;;;16.60;99.90;;;;;;5062439;28;20435;-66
2022/06/28 00:34:59;;;;;;;0.40;0.20;;;16.60;99.90;;;;;;5062333;28;20435;-66
2022/06/28 00:37:26;;;;;;;0.40;0.30;;;16.50;99.90;;;;;;5065522;28;20387;-66
2022/06/28 00:39:54;;;;;;;0.40;0.20;;;16.50;99.90;;;;;;5053475;28;20498;-66
2022/06/28 00:42:20;;;;;;;0.40;0.20;;;16.60;99.90;;;;;;5049846;28;20720;-66
2022/06/28 00:44:46;;;;;;;0.40;0.20;;;16.50;99.90;;;;;;5052981;28;20447;-66
2022/06/28 00:47:13;;;;;;;0.40;0.20;;;16.60;99.90;;;;;;5053462;28;20389;-66
2022/06/28 00:49:40;;;;;;;0.40;0.20;;;16.50;99.90;;;;;;5053140;28;20421;-66
2022/06/28 00:52:10;;;;;;;0.40;0.20;;;16.60;99.90;;;;;;5053511;28;20476;-66
2022/06/28 00:54:37;;;;;;;0.40;0.20;;;16.60;99.90;;;;;;5053552;28;20417;-66
2022/06/28 00:57:03;;;;;;;0.40;0.20;;;16.70;99.90;;;;;;5053023;28;20485;-66
2022/06/28 00:59:29;;;;;;;0.40;0.20;;;16.60;99.90;;;;;;5055096;28;20421;-66
2022/06/28 01:01:58;;;;;;;0.40;0.30;;;16.60;99.90;;;;;;5052594;28;20421;-66
2022/06/28 01:04:24;;;;;;;0.40;0.20;;;16.50;99.90;;;;;;5053123;28;20853;-66
2022/06/28 01:06:52;;;;;;;0.40;0.30;;;16.50;99.90;;;;;;5052403;28;20408;-66
2022/06/28 01:09:17;;;;;;;0.40;0.30;;;16.50;99.90;;;;;;5053243;28;20857;-66
2022/06/28 01:11:43;;;;;;;0.40;0.20;;;16.50;99.90;;;;;;5052138;28;20541;-66
2022/06/28 01:14:09;;;;;;;0.40;0.20;;;16.50;99.90;;;;;;5062878;28;20396;-66
2022/06/28 01:16:36;;;;;;;0.40;0.20;;;16.40;99.90;;;;;;5072733;28;20380;-66
2022/06/28 01:19:03;;;;;;;0.40;0.20;;;16.50;99.90;;;;;;5072577;28;20376;-66
2022/06/28 01:21:30;;;;;;;1.20;0.80;;;16.30;99.90;;;;;;5073000;28;20458;-66
2022/06/28 01:23:56;;;;;;;0.40;0.20;;;16.30;99.90;;;;;;5072144;28;20462;-66
2022/06/28 01:26:23;;;;;;;0.40;0.28;;;16.20;99.90;;;;;;5072546;28;20563;-66
2022/06/28 01:28:50;;;;;;;0.40;0.30;;;16.10;99.90;;;;;;5072143;28;20387;-66
2022/06/28 01:31:21;;;;;;;0.40;0.30;;;16.20;99.90;;;;;;5072351;28;20843;-66
2022/06/28 01:33:49;;;;;;;0.40;0.20;;;16.20;99.90;;;;;;5062663;28;20820;-66
2022/06/28 01:36:14;;;;;;;0.40;0.40;;;16.30;99.90;;;;;;5052934;28;20401;-66
2022/06/28 01:38:41;;;;;;;0.40;0.20;;;16.30;99.90;;;;;;5034196;28;20461;-66
2022/06/28 01:41:08;;;;;;;0.40;0.30;;;16.30;99.90;;;;;;5052354;28;20904;-66
2022/06/28 01:43:36;;;;;;;0.40;0.30;;;16.30;99.90;;;;;;5052867;28;20377;-67
2022/06/28 01:46:04;;;;;;;0.40;0.20;;;16.30;99.90;;;;;;5051527;28;20409;-66
2022/06/28 01:48:32;;;;;;;0.40;0.20;;;16.20;99.90;;;;;;5051296;28;20746;-66
2022/06/28 01:50:58;;;;;;;0.40;0.30;;;16.30;99.90;;;;;;5051936;28;20453;-66
2022/06/28 01:53:23;;;;;;;0.40;0.30;;;16.20;99.90;;;;;;5068848;28;20388;-66
2022/06/28 01:55:49;;;;;;;0.40;0.20;;;16.20;99.90;;;;;;5070497;28;20859;-66
2022/06/28 01:58:15;;;;;;;0.40;0.30;;;16.20;99.90;;;;;;5072279;28;20376;-66
2022/06/28 02:00:42;;;;;;;0.40;0.20;;;16.20;99.90;;;;;;5071736;28;20415;-66
2022/06/28 02:03:08;;;;;;;0.40;0.20;;;16.30;99.90;;;;;;5072058;28;20384;-66
2022/06/28 02:05:34;;;;;;;0.40;0.20;;;16.30;99.90;;;;;;5072171;28;20412;-66
2022/06/28 02:08:00;;;;;;;0.40;0.30;;;16.30;99.90;;;;;;5071328;28;21058;-66
2022/06/28 02:10:26;;;;;;;0.40;0.30;;;16.30;99.90;;;;;;5054353;28;20376;-66
2022/06/28 02:12:52;;;;;;;0.40;0.20;;;16.40;99.90;;;;;;5071164;28;20432;-66
2022/06/28 02:15:18;;;;;;;0.40;0.30;;;16.50;99.90;;;;;;5072311;28;20399;-66
2022/06/28 02:17:44;;;;;;;0.40;0.20;;;16.40;99.90;;;;;;5070869;28;20380;-66
2022/06/28 02:20:11;;;;;;;0.40;0.30;;;16.50;99.90;;;;;;5071875;28;20380;-66
2022/06/28 02:22:37;;;;;;;0.40;0.40;;;16.40;99.90;;;;;;5071930;28;20388;-66
2022/06/28 02:25:03;;;;;;;0.40;0.20;;;16.40;99.90;;;;;;5070962;28;21013;-66
2022/06/28 02:27:29;;;;;;;0.40;0.20;;;16.40;99.90;;;;;;5071598;28;20390;-67
2022/06/28 02:29:54;;;;;;;0.40;0.30;;;16.50;99.90;;;;;;5070996;28;20372;-66
2022/06/28 02:32:20;;;;;;;0.40;0.20;;;16.30;99.90;;;;;;5065305;28;20392;-66
2022/06/28 02:40:23;;;;;;;0.40;0.30;;;16.40;99.90;;;;;;5071483;28;20513;-66
2022/06/28 02:42:50;;;;;;;0.50;0.50;;;16.30;99.90;;;;;;5070622;28;20399;-66
2022/06/28 02:45:16;;;;;;;0.40;0.20;;;16.20;99.90;;;;;;5071373;28;20399;-66
2022/06/28 02:47:42;;;;;;;0.40;0.20;;;16.30;99.90;;;;;;5071226;28;20469;-66
2022/06/28 02:50:09;;;;;;;0.40;0.40;;;16.20;99.90;;;;;;5070716;28;20386;-66
2022/06/28 02:52:35;;;;;;;0.40;0.20;;;16.20;99.90;;;;;;5071187;28;20388;-66
2022/06/28 02:55:01;;;;;;;0.40;0.25;;;16.30;99.90;;;;;;5070161;28;20872;-66
2022/06/28 02:57:26;;;;;;;0.40;0.20;;;16.30;99.90;;;;;;5070904;28;20497;-66
2022/06/28 02:59:52;;;;;;;0.40;0.30;;;16.40;99.90;;;;;;5070273;28;20382;-66
2022/06/28 03:02:18;;;;;;;0.40;0.20;;;16.40;99.90;;;;;;5070936;28;20383;-66
2022/06/28 03:04:43;;;;;;;0.40;0.20;;;16.60;99.90;;;;;;5065082;28;20407;-66
2022/06/28 03:07:09;;;;;;;0.40;0.20;;;16.50;99.90;;;;;;5060452;28;20415;-66
2022/06/28 03:09:34;;;;;;;0.40;0.20;;;16.30;99.90;;;;;;5070382;28;20445;-66
2022/06/28 03:12:00;;;;;;;0.40;0.20;;;16.40;99.90;;;;;;5069820;28;20859;-66
2022/06/28 03:14:26;;;;;;;0.40;0.22;;;16.40;99.90;;;;;;5070887;28;20399;-66
2022/06/28 03:16:51;;;;;;;0.40;0.20;;;16.40;99.90;;;;;;5070308;28;20863;-66
2022/06/28 03:19:17;;;;;;;0.40;0.20;;;16.40;99.90;;;;;;5070693;28;20372;-66
2022/06/28 03:21:43;;;;;;;0.50;0.50;;;16.40;99.90;;;;;;5070701;28;20380;-67
2022/06/28 03:24:09;;;;;;;0.40;0.20;;;16.40;99.90;;;;;;5069848;28;20429;-66
2022/06/28 03:26:34;;;;;;;0.40;0.20;;;16.40;99.90;;;;;;5070650;28;20400;-66
2022/06/28 03:29:00;;;;;;;0.40;0.28;;;16.30;99.90;;;;;;5070103;28;20402;-66
2022/06/28 03:31:26;;;;;;;0.40;0.20;;;16.30;99.90;;;;;;5070552;28;20387;-66
2022/06/28 03:33:51;;;;;;;0.40;0.30;;;16.30;99.90;;;;;;5069674;28;20396;-66
2022/06/28 03:36:20;;;;;;;0.40;0.20;;;16.40;99.90;;;;;;5070883;28;20430;-66
2022/06/28 03:38:46;;;;;;;0.40;0.20;;;16.40;99.90;;;;;;5064286;28;20400;-66
2022/06/28 03:41:11;;;;;;;0.40;0.30;;;16.30;99.90;;;;;;5050192;28;20378;-66
2022/06/28 03:43:37;;;;;;;0.40;0.30;;;16.20;99.90;;;;;;5050735;28;20474;-68
2022/06/28 03:46:02;;;;;;;0.40;0.30;;;16.10;99.90;;;;;;5049342;28;20889;-66
2022/06/28 03:48:28;;;;;;;0.40;0.20;;;16.20;99.90;;;;;;5050763;28;20381;-66
2022/06/28 03:50:56;;;;;;;0.40;0.20;;;16.30;99.90;;;;;;5049657;28;20377;-67
2022/06/28 03:53:22;;;;;;;0.40;0.20;;;16.30;99.90;;;;;;5050498;28;20378;-67
2022/06/28 03:55:50;;;;;;;0.40;0.20;;;16.30;99.90;;;;;;5050417;28;20388;-66
2022/06/28 03:58:21;;;;;;;0.47;0.45;;;16.30;99.90;;;;;;5050525;28;20824;-66
2022/06/28 04:00:49;;;;;;;0.40;0.20;;;16.30;99.90;;;;;;5049820;28;20386;-66
2022/06/28 04:03:18;;;;;;;0.40;0.22;;;16.30;99.90;;;;;;5050222;28;20451;-67
2022/06/28 04:05:47;;;;;;;0.40;0.30;;;16.40;99.90;;;;;;5050560;28;20424;-66
2022/06/28 04:08:16;;;;;;;0.40;0.30;;;16.50;99.90;;;;;;5064923;28;20915;-66
2022/06/28 04:10:43;;;;;;;0.40;0.30;;;16.50;99.90;;;;;;5069850;28;20740;-66
2022/06/28 04:13:11;;;;;;;0.40;0.30;;;16.60;99.90;;;;;;5068945;28;20475;-66
2022/06/28 04:15:40;;;;;;;0.40;0.20;;;16.40;99.90;;;;;;5069837;28;20396;-66
2022/06/28 04:18:06;;;;;;;0.40;0.30;;;16.50;99.90;;;;;;5069363;28;20403;-66
2022/06/28 04:20:33;;;;;;;0.40;0.30;;;16.50;99.90;;;;;;5074926;28;20856;-66
2022/06/28 04:23:02;;;;;;;0.40;0.20;;;16.70;99.90;;;;;;5073315;28;20739;-66
2022/06/28 04:25:31;;;;;;;0.40;0.30;;;16.70;99.90;;;;;;5074168;28;20451;-66
2022/06/28 04:27:56;;;;;;;0.40;0.40;;;16.70;99.90;;;;;;5072878;28;20395;-66
2022/06/28 04:30:25;;;;;;;0.40;0.30;;;16.70;99.90;;;;;;5074217;28;20513;-66
2022/06/28 04:32:51;;;;;;;0.40;0.20;;;16.80;99.90;;;;;;5072368;28;20454;-66
2022/06/28 04:35:16;;;;;;;0.40;0.30;;;16.80;99.90;;;;;;5074463;28;20465;-66
2022/06/28 04:37:42;;;;;;;0.50;0.50;;;16.80;99.90;;;;;;5074013;28;20977;-66
2022/06/28 04:40:08;;;;;;;0.40;0.20;;;16.80;99.90;;;;;;5072845;28;20599;-66
2022/06/28 04:42:36;;;;;;;0.40;0.20;;;17.10;99.90;;;;;;5073507;28;20391;-66
2022/06/28 04:45:10;;;;;;;0.40;0.20;;;17.00;99.90;;;;;;5072870;28;20409;-66
2022/06/28 04:47:36;;;;;;;0.40;0.20;;;16.90;99.90;;;;;;5059877;28;20399;-66
2022/06/28 04:50:03;;;;;;;0.40;0.22;;;17.00;99.90;;;;;;5072987;28;20810;-67
2022/06/28 04:52:31;;;;;;;0.50;0.50;;;17.00;99.90;;;;;;5055237;28;20741;-67
2022/06/28 04:54:57;;;;;;;0.40;0.20;;;17.00;99.90;;;;;;5072676;28;20403;-66
2022/06/28 04:57:22;;;;;;;0.40;0.20;;;17.00;99.90;;;;;;5062066;28;20396;-67
2022/06/28 04:59:48;;;;;;;0.40;0.30;;;17.00;99.90;;;;;;5071532;28;20467;-67
2022/06/28 05:02:14;;;;;;;0.40;0.20;;;16.90;99.90;;;;;;5071966;28;20411;-67
2022/06/28 05:04:42;;;;;;;0.40;0.20;;;16.90;99.90;;;;;;5066622;28;20396;-67
2022/06/28 05:07:07;;;;;;;0.40;0.30;;;16.90;99.90;;;;;;5064466;28;20419;-67
2022/06/28 05:09:33;;;;;;;0.40;0.20;;;16.90;99.90;;;;;;5071900;28;20384;-67
2022/06/28 05:11:59;;;;;;;0.40;0.20;;;16.90;99.90;;;;;;5070731;28;20384;-67
2022/06/28 05:14:24;;;;;;;0.40;0.30;;;17.10;99.90;;;;;;5072597;28;20384;-67
2022/06/28 05:16:50;;;;;;;0.40;0.20;;;17.20;99.90;;;;;;5072087;28;20406;-67
2022/06/28 05:19:18;;;;;;;1.10;1.00;;;17.20;99.90;;;;;;5072193;28;20392;-67
2022/06/28 05:21:44;;;;;;;0.40;0.30;;;17.30;99.90;;;;;;5071810;28;20384;-67
2022/06/28 05:24:13;;;;;;;0.40;0.30;;;17.20;99.90;;;;;;5062269;28;20666;-67
2022/06/28 05:26:38;;;;;;;0.40;0.30;;;17.10;99.90;;;;;;5059713;28;20487;-67
2022/06/28 05:29:06;;;;;;;0.40;0.20;;;17.10;99.90;;;;;;5071317;28;20753;-67
2022/06/28 05:31:32;;;;;;;0.40;0.20;;;17.20;99.90;;;;;;5072178;28;20403;-67
2022/06/28 05:33:58;;;;;;;0.40;0.30;;;17.30;99.90;;;;;;5066335;28;20882;-67
2022/06/28 05:36:26;;;;;;;0.40;0.30;;;17.40;99.90;;;;;;5070053;28;20855;-67
2022/06/28 05:38:57;;;;;;;0.40;0.20;;;17.40;99.90;;;;;;5072386;28;20403;-67
2022/06/28 05:41:28;;;;;;;0.40;0.30;;;17.30;99.90;;;;;;5072552;28;20782;-67
2022/06/28 05:43:55;;;;;;;0.40;0.20;;;17.40;99.90;;;;;;5054466;28;20482;-67
2022/06/28 05:46:20;;;;;;;0.40;0.20;;;17.50;99.90;;;;;;5067658;28;20990;-67
2022/06/28 05:48:46;;;;;;;0.40;0.20;;;17.40;99.90;;;;;;5065657;28;20427;-67
2022/06/28 05:51:20;;;;;;;0.40;0.20;;;17.50;99.90;;;;;;5071762;28;20387;-68
2022/06/28 05:53:46;;;;;;;0.40;0.25;;;17.20;99.90;;;;;;5070275;28;20507;-67
2022/06/28 05:56:15;;;;;;;0.40;0.20;;;17.30;99.90;;;;;;5069000;28;20502;-67
2022/06/28 05:58:41;;;;;;;0.40;0.20;;;17.30;99.90;;;;;;5070118;28;20387;-67
2022/06/28 06:01:07;;;;;;;0.40;0.20;;;17.40;99.90;;;;;;5070367;28;20395;-67
2022/06/28 06:03:33;;;;;;;0.40;0.30;;;17.40;99.90;;;;;;5071181;28;20479;-67
2022/06/28 06:05:59;;;;;;;0.40;0.20;;;17.40;99.90;;;;;;5066143;28;20479;-67
2022/06/28 06:08:25;;;;;;;0.40;0.20;;;17.40;99.90;;;;;;5068068;28;20392;-67
2022/06/28 06:10:51;;;;;;;0.40;0.30;;;17.40;99.90;;;;;;5051833;28;20425;-67
2022/06/28 06:13:16;;;;;;;0.40;0.20;;;17.30;99.90;;;;;;5056213;28;20487;-67
2022/06/28 06:15:44;;;;;;;0.40;0.30;;;17.40;99.90;;;;;;5067759;28;20515;-67
2022/06/28 06:18:10;;;;;;;0.40;0.30;;;17.30;99.90;;;;;;5052822;28;20543;-67
2022/06/28 06:20:36;;;;;;;0.40;0.30;;;17.30;99.90;;;;;;5070827;28;20402;-67
2022/06/28 06:23:02;;;;;;;0.40;0.30;;;17.40;99.90;;;;;;5070393;28;20383;-67
2022/06/28 06:25:30;;;;;;;0.90;0.60;;;17.50;99.90;;;;;;5071494;28;20408;-67
2022/06/28 06:28:01;;;;;;;0.40;0.30;;;17.50;99.90;;;;;;5064642;28;20403;-67
2022/06/28 06:30:28;;;;;;;0.40;0.20;;;17.50;99.90;;;;;;5071389;28;20789;-67
2022/06/28 06:32:54;;;;;;;0.40;0.20;;;17.50;99.90;;;;;;5071511;28;20506;-67
2022/06/28 06:35:20;;;;;;;0.40;0.35;;;17.40;99.90;;;;;;5071144;28;20463;-66
2022/06/28 06:37:46;;;;;;;0.40;0.20;;;17.60;99.90;;;;;;5070679;28;20372;-67
2022/06/28 06:40:12;;;;;;;0.40;0.20;;;17.60;99.90;;;;;;5066517;28;20763;-67
2022/06/28 06:42:38;;;;;;;0.40;0.30;;;17.70;99.90;;;;;;5061003;28;20468;-67
2022/06/28 06:45:07;;;;;;;0.40;0.20;;;17.70;99.90;;;;;;5055479;28;20405;-66
2022/06/28 06:47:33;;;;;;;0.40;0.20;;;17.60;99.90;;;;;;5067922;28;20435;-67
2022/06/28 06:49:59;;;;;;;0.40;0.30;;;17.90;99.90;;;;;;5059512;28;20913;-66
2022/06/28 06:52:25;;;;;;;0.40;0.20;;;17.80;99.90;;;;;;5062950;28;20395;-67
2022/06/28 06:54:51;;;;;;;0.40;0.20;;;17.90;99.90;;;;;;5071360;28;20388;-67
2022/06/28 06:57:16;;;;;;;0.40;0.20;;;17.90;99.90;;;;;;5070137;28;20398;-67
2022/06/28 06:59:42;;;;;;;0.40;0.20;;;18.00;99.90;;;;;;5070821;28;20872;-67
2022/06/28 07:02:08;;;;;;;0.40;0.40;;;17.90;99.90;;;;;;5070271;28;20442;-67
2022/06/28 07:04:34;;;;;;;0.40;0.30;;;17.90;99.90;;;;;;5053168;28;20411;-67
2022/06/28 07:07:00;;;;;;;0.40;0.40;;;18.00;99.90;;;;;;5062219;28;20412;-67
2022/06/28 07:09:26;;;;;;;0.40;0.20;;;18.10;99.90;;;;;;5064574;28;20513;-67
2022/06/28 07:11:52;;;;;;;0.40;0.40;;;18.10;99.90;;;;;;5070756;28;20561;-68
2022/06/28 07:14:17;;;;;;;0.40;0.20;;;18.10;99.90;;;;;;5069529;28;20394;-66
2022/06/28 07:16:45;;;;;;;0.40;0.20;;;18.20;99.90;;;;;;5069527;28;20400;-67
2022/06/28 07:19:11;;;;;;;0.40;0.20;;;18.20;99.90;;;;;;5059906;28;20408;-66
2022/06/28 07:21:37;;;;;;;0.40;0.20;;;18.20;99.90;;;;;;5059573;28;20378;-68
2022/06/28 07:24:03;;;;;;;0.50;0.50;;;18.10;99.90;;;;;;5050282;28;20416;-66
2022/06/28 07:26:29;;;;;;;0.40;0.20;;;18.20;99.90;;;;;;5060404;28;20478;-66
2022/06/28 07:28:57;;;;;;;0.40;0.20;;;18.20;99.90;;;;;;5070472;28;20381;-67
2022/06/28 07:31:23;;;;;;;0.40;0.30;;;18.20;99.90;;;;;;5067532;28;20427;-67
2022/06/28 07:33:49;;;;;;;0.40;0.30;;;18.20;99.90;;;;;;5070917;28;20406;-68
2022/06/28 07:36:15;;;;;;;0.40;0.23;;;18.20;99.90;;;;;;5068975;28;20386;-68
2022/06/28 07:38:47;;;;;;;0.40;0.30;;;18.40;99.90;;;;;;5066979;28;20467;-68
2022/06/28 07:41:13;;;;;;;0.40;0.20;;;18.50;99.90;;;;;;5068738;28;20377;-68
2022/06/28 07:43:38;;;;;;;0.40;0.30;;;18.50;99.90;;;;;;5067432;28;20440;-68
2022/06/28 07:46:06;;;;;;;0.50;0.50;;;18.60;99.90;;;;;;5067093;28;20479;-67
2022/06/28 07:48:32;;;;;;;0.40;0.20;;;18.70;99.90;;;;;;5067342;28;20403;-68
2022/06/28 07:53:43;;;;;;;0.40;0.20;;;19.00;99.90;;;;;;5069616;28;20393;-68
2022/06/28 07:56:11;;;;;;;0.40;0.30;;;19.10;99.90;;;;;;5067059;28;20934;-67
2022/06/28 07:58:40;;;;;;;0.40;0.20;;;19.20;99.90;;;;;;5066150;28;20754;-68
2022/06/28 08:01:07;;;;;;;0.40;0.20;;;19.20;99.90;;;;;;5066477;28;20476;-67
2022/06/28 08:03:33;;;;;;;0.40;0.20;;;19.30;99.90;;;;;;5068592;28;20475;-68
2022/06/28 08:05:59;;;;;;;0.50;0.50;;;19.20;99.90;;;;;;5070691;28;20414;-65
2022/06/28 08:08:25;;;;;;;0.40;0.30;;;19.30;99.90;;;;;;5066051;28;20414;-66
2022/06/28 08:10:53;;;;;;;0.40;0.30;;;19.40;99.90;;;;;;5054288;28;20374;-66
2022/06/28 08:13:25;;;;;;;0.90;0.90;;;19.60;99.90;;;;;;5069904;28;21169;-66
2022/06/28 08:15:51;;;;;;;0.40;0.20;;;19.50;99.90;;;;;;5068800;28;20472;-66
2022/06/28 08:18:17;;;;;;;0.40;0.40;;;19.60;99.90;;;;;;5066985;28;20435;-66
2022/06/28 08:20:43;;;;;;;1.90;0.60;;;19.60;99.90;;;;;;5067383;28;20388;-67
2022/06/28 08:23:09;;;;;;;0.40;0.20;;;19.60;99.90;;;;;;5071047;28;20385;-66
2022/06/28 08:25:38;;;;;;;1.20;0.40;;;19.60;99.90;;;;;;5067541;28;20405;-66
2022/06/28 08:28:04;;;;;;;0.40;0.20;;;19.80;99.90;;;;;;5055515;28;20403;-66
2022/06/28 08:30:30;;;;;;;0.85;0.77;;;19.90;99.90;;;;;;5089489;28;20378;-66
2022/06/28 08:33:02;;;;;;;0.40;0.20;;;19.90;99.90;;;;;;5064591;28;20817;-66
2022/06/28 08:35:28;;;;;;;0.40;0.20;;;20.00;99.90;;;;;;5052008;28;20955;-66
2022/06/28 08:37:53;;;;;;;0.70;0.40;;;20.20;99.90;;;;;;5051905;28;20479;-66
2022/06/28 08:40:25;;;;;;;0.40;0.20;;;20.40;99.90;;;;;;5069731;28;20473;-66
2022/06/28 08:42:57;;;;;;;0.40;0.30;;;20.40;99.90;;;;;;5060357;28;20415;-70
2022/06/28 08:45:27;;;;;;;0.40;0.20;;;20.40;99.90;;;;;;5066564;28;20526;-66
2022/06/28 08:47:55;;;;;;;0.40;0.30;;;20.80;99.90;;;;;;5067757;28;20796;-67
2022/06/28 08:50:51;;;;;;;0.40;0.30;;;20.90;99.90;;;;;;5044812;28;20554;-67
2022/06/28 08:53:22;;;;;;;0.40;0.30;;;20.80;99.90;;;;;;5063646;28;21031;-67
2022/06/28 08:55:50;;;;;;;0.40;0.30;;;20.80;99.90;;;;;;5063117;28;20974;-67
2022/06/28 08:58:17;;;;;;;0.40;0.20;;;20.60;99.90;;;;;;5063168;28;20402;-67
2022/06/28 09:00:43;;;;;;;0.40;0.20;;;20.60;99.90;;;;;;5063804;28;20394;-67
2022/06/28 09:03:09;;;;;;;0.40;0.20;;;20.70;99.90;;;;;;5044896;28;20461;-67
2022/06/28 09:05:34;;;;;;;0.40;0.30;;;21.10;99.90;;;;;;5067501;28;20420;-67
2022/06/28 09:08:00;;;;;;;0.40;0.20;;;21.00;99.90;;;;;;5066097;28;20805;-66
2022/06/28 09:10:28;;;;;;;0.40;0.25;;;21.10;99.90;;;;;;5073148;28;20375;-67
2022/06/28 09:13:09;;;;;;;0.50;0.50;;;21.10;99.90;;;;;;5072926;28;20387;-67
2022/06/28 09:15:56;;;;;;;0.50;0.50;;;21.40;99.90;;;;;;5072016;28;20769;-67
2022/06/28 09:18:46;;;;;;;0.40;0.20;;;21.20;99.90;;;;;;5067055;28;20396;-67
2022/06/28 09:21:16;;;;;;;0.50;0.50;;;21.40;99.90;;;;;;5061858;28;20434;-66
2022/06/28 09:23:44;;;;;;;0.40;0.20;;;21.40;99.90;;;;;;5062300;28;20399;-66
2022/06/28 09:26:14;;;;;;;0.40;0.20;;;21.60;99.90;;;;;;5063441;28;20498;-66
2022/06/28 09:28:51;;;;;;;0.40;0.20;;;21.60;99.90;;;;;;5072343;28;20850;-66
2022/06/28 09:31:20;;;;;;;0.40;0.20;;;21.60;99.90;;;;;;5072098;28;20471;-66
2022/06/28 09:33:59;;;;;;;0.40;0.30;;;21.20;99.90;;;;;;5071534;28;20424;-67
2022/06/28 09:36:25;;;;;;;0.40;0.25;;;21.10;99.90;;;;;;5072139;28;20481;-68
2022/06/28 09:38:53;;;;;;;0.40;0.20;;;21.20;99.90;;;;;;5072852;28;20380;-67
2022/06/28 09:41:26;;;;;;;0.40;0.30;;;21.40;99.90;;;;;;5070888;28;20737;-67
2022/06/28 09:43:57;;;;;;;0.40;0.28;;;21.20;99.90;;;;;;5072205;28;20474;-68
2022/06/28 09:46:30;;;;;;;0.40;0.20;;;21.00;99.90;;;;;;5070742;28;21079;-67
2022/06/28 09:48:58;;;;;;;0.40;0.38;;;21.10;99.90;;;;;;5072732;28;20411;-68
2022/06/28 09:51:24;;;;;;;0.40;0.25;;;21.10;99.90;;;;;;5071940;28;20724;-67
2022/06/28 09:54:00;;;;;;;0.40;0.20;;;21.10;99.90;;;;;;5088958;28;20400;-67
2022/06/28 09:56:27;;;;;;;0.40;0.30;;;21.10;99.90;;;;;;5071370;28;20398;-67
2022/06/28 09:58:53;;;;;;;0.40;0.20;;;21.30;99.90;;;;;;5037812;28;20732;-67
2022/06/28 10:01:23;;;;;;;0.40;0.20;;;21.40;99.90;;;;;;5071408;28;20390;-67
2022/06/28 10:03:49;;;;;;;0.40;0.20;;;21.80;99.90;;;;;;5072955;28;20747;-67
2022/06/28 10:06:18;;;;;;;0.40;0.20;;;22.00;99.90;;;;;;5070938;28;20399;-67
2022/06/28 10:08:46;;;;;;;0.40;0.30;;;22.40;99.90;;;;;;5072277;28;20388;-68
2022/06/28 10:11:12;;;;;;;0.40;0.20;;;22.50;99.90;;;;;;5053892;28;20450;-68
2022/06/28 10:16:36;;;;;;;0.40;0.30;;;22.80;99.90;;;;;;5055797;28;20461;-67
2022/06/28 10:19:03;;;;;;;2.10;0.90;;;22.80;99.90;;;;;;5068928;28;20960;-67
2022/06/28 10:22:07;;;;;;;0.40;0.30;;;22.50;99.90;;;;;;5069371;28;20396;-67
2022/06/28 10:24:52;;;;;;;0.40;0.20;;;22.40;99.90;;;;;;5066369;28;20481;-67
2022/06/28 10:27:22;;;;;;;0.40;0.30;;;22.50;99.90;;;;;;5066180;28;20426;-67
2022/06/28 10:30:08;;;;;;;0.40;0.30;;;22.60;99.90;;;;;;5070224;28;20403;-67
2022/06/28 10:33:14;;;;;;;0.40;0.27;;;22.60;99.90;;;;;;5066903;28;20412;-67
2022/06/28 10:35:44;;;;;;;0.40;0.20;;;22.40;99.90;;;;;;5071379;28;20470;-67
2022/06/28 10:38:09;;;;;;;0.40;0.30;;;22.30;99.90;;;;;;5070361;28;20471;-67
2022/06/28 10:40:49;;;;;;;0.40;0.20;;;22.50;99.90;;;;;;5071495;28;20740;-67
2022/06/28 10:43:26;;;;;;;0.40;0.20;;;22.80;99.90;;;;;;5070218;28;20868;-67
2022/06/28 10:46:06;;;;;;;0.40;0.30;;;22.50;99.90;;;;;;5070717;28;20420;-67
2022/06/28 10:48:51;;;;;;;0.40;0.20;;;22.40;99.90;;;;;;5070050;28;21242;-67
2022/06/28 10:51:20;;;;;;;0.40;0.20;;;22.60;99.90;;;;;;5070137;28;20466;-67
2022/06/28 10:54:09;;;;;;;0.60;0.50;;;22.50;99.90;;;;;;5071256;28;20411;-67
2022/06/28 10:56:47;;;;;;;0.40;0.30;;;22.40;99.90;;;;;;5070709;28;20506;-67
2022/06/28 10:59:20;;;;;;;0.40;0.30;;;22.00;99.90;;;;;;5070366;28;20384;-67
2022/06/28 11:01:46;;;;;;;0.40;0.30;;;22.20;99.90;;;;;;5070938;28;20392;-67
2022/06/28 11:04:23;;;;;;;0.60;0.60;;;22.20;99.90;;;;;;5070405;28;20482;-68
2022/06/28 11:06:57;;;;;;;0.40;0.30;;;22.20;99.90;;;;;;5071085;28;20412;-67
2022/06/28 11:09:45;;;;;;;0.40;0.30;;;22.10;99.90;;;;;;5070362;28;20387;-67
2022/06/28 11:12:17;;;;;;;0.40;0.30;;;22.00;99.90;;;;;;5067310;28;20429;-68
2022/06/28 11:14:48;;;;;;;0.40;0.30;;;22.10;99.90;;;;;;5070745;28;20465;-67
2022/06/28 11:17:19;;;;;;;0.40;0.30;;;21.90;99.90;;;;;;5069862;28;20909;-66
2022/06/28 11:19:51;;;;;;;0.40;0.20;;;21.80;99.90;;;;;;5071028;28;20387;-68
2022/06/28 11:22:31;;;;;;;0.90;0.90;;;21.90;99.90;;;;;;5069571;28;20764;-67
2022/06/28 11:25:02;;;;;;;0.40;0.40;;;22.10;99.90;;;;;;5070653;28;20403;-68
2022/06/28 11:27:29;;;;;;;0.40;0.30;;;22.10;99.90;;;;;;5068386;28;20400;-67
2022/06/28 11:30:03;;;;;;;0.70;0.60;;;22.00;99.90;;;;;;5070649;28;20425;-68
2022/06/28 11:32:32;;;;;;;0.40;0.20;;;22.20;99.90;;;;;;5069415;28;20418;-67
2022/06/28 11:35:05;;;;;;;0.40;0.30;;;22.50;99.90;;;;;;5070699;28;20414;-68
2022/06/28 11:37:46;;;;;;;0.40;0.20;;;22.50;99.90;;;;;;5070001;28;20961;-67
2022/06/28 11:40:12;;;;;;;0.40;0.30;;;22.70;99.90;;;;;;5067934;28;20399;-67
2022/06/28 11:42:38;;;;;;;0.60;0.50;;;22.90;99.90;;;;;;5070332;28;20372;-67
2022/06/28 11:45:04;;;;;;;0.40;0.20;;;22.70;99.90;;;;;;5062070;28;20370;-67
2022/06/28 11:47:30;;;;;;;0.40;0.20;;;22.90;99.90;;;;;;5049523;28;20452;-67
2022/06/28 11:50:28;;;;;;;0.40;0.40;;;22.70;99.90;;;;;;5058170;28;20884;-67
2022/06/28 11:52:56;;;;;;;0.40;0.20;;;22.60;99.90;;;;;;5044495;28;20847;-67
2022/06/28 11:55:57;;;;;;;0.40;0.20;;;22.80;99.90;;;;;;5049350;28;20915;-66
2022/06/28 11:58:26;;;;;;;0.40;0.20;;;22.60;99.90;;;;;;4967828;28;20411;-66
2022/06/28 12:01:10;;;;;;;0.40;0.20;;;22.80;99.90;;;;;;5049159;28;20399;-67
2022/06/28 12:03:55;;;;;;;0.40;0.20;;;22.80;99.90;;;;;;5068602;28;20455;-67
2022/06/28 12:06:30;;;;;;;0.40;0.30;;;22.70;99.90;;;;;;5073197;28;20411;-67
2022/06/28 12:09:09;;;;;;;0.40;0.20;;;22.60;99.90;;;;;;5069891;28;20402;-68
2022/06/28 12:11:47;;;;;;;0.40;0.40;;;22.70;99.90;;;;;;5053217;28;20393;-67
2022/06/28 12:14:16;;;;;;;0.40;0.30;;;22.60;99.90;;;;;;5067952;28;20838;-67
2022/06/28 12:16:48;;;;;;;0.40;0.20;;;22.80;99.90;;;;;;5070933;28;20800;-67
2022/06/28 12:19:19;;;;;;;0.40;0.20;;;22.60;99.90;;;;;;5067893;28;20395;-67
2022/06/28 12:22:07;;;;;;;0.50;0.50;;;22.80;99.90;;;;;;5066236;28;20406;-67
2022/06/28 12:24:43;;;;;;;0.40;0.20;;;22.80;99.90;;;;;;5067206;28;20411;-67
2022/06/28 12:27:14;;;;;;;0.40;0.30;;;22.60;99.90;;;;;;5066105;28;20401;-67
2022/06/28 12:29:40;;;;;;;0.40;0.20;;;22.50;99.90;;;;;;5067820;28;20480;-67
2022/06/28 12:32:07;;;;;;;0.40;0.30;;;22.60;99.90;;;;;;5066754;28;20405;-66
2022/06/28 12:34:33;;;;;;;1.13;0.88;;;22.90;99.90;;;;;;5059503;28;20405;-67
2022/06/28 12:36:58;;;;;;;0.73;0.70;;;23.00;99.90;;;;;;5049838;28;20385;-67
2022/06/28 12:39:24;;;;;;;0.40;0.20;;;23.10;99.90;;;;;;5050844;28;20385;-67
2022/06/28 12:41:51;;;;;;;0.40;0.20;;;23.20;99.90;;;;;;5069179;28;20403;-68
2022/06/28 12:44:17;;;;;;;0.40;0.20;;;23.10;99.90;;;;;;5070726;28;20410;-68
2022/06/28 12:46:45;;;;;;;0.40;0.20;;;23.20;99.90;;;;;;5070342;28;20426;-67
2022/06/28 12:49:10;;;;;;;0.40;0.20;;;23.10;99.90;;;;;;5057564;28;20405;-66
2022/06/28 12:51:39;;;;;;;0.40;0.30;;;22.90;99.90;;;;;;5058348;28;20394;-67
2022/06/28 12:54:05;;;;;;;0.40;0.30;;;22.70;99.90;;;;;;5064002;28;20737;-67
2022/06/28 12:56:30;;;;;;;0.40;0.30;;;22.70;99.90;;;;;;5068856;28;20526;-67
2022/06/28 12:58:59;;;;;;;0.40;0.20;;;22.60;99.90;;;;;;5073311;28;20372;-67
2022/06/28 13:01:25;;;;;;;0.40;0.20;;;22.70;99.90;;;;;;5072636;28;20494;-67
2022/06/28 13:03:51;;;;;;;0.40;0.20;;;22.80;99.90;;;;;;5073349;28;20380;-67
2022/06/28 13:06:17;;;;;;;0.60;0.60;;;23.10;99.90;;;;;;5072412;28;20395;-66
2022/06/28 13:08:43;;;;;;;1.20;0.80;;;23.20;99.90;;;;;;5073725;28;20384;-67